Time;durP1;ratioP1;P1;durP2;ratioP2;P2;SDS_P1;SDS_P2;PMS_P1;PMS_P2;Temp;Humidity;BMP_temperature;BMP_pressure;BME280_temperature;BME280_humidity;BME280_pressure;Samples;Min_cycle;Max_cycle;Signal;HPM_P1;HPM_P2
2023/05/12 00:03:01;;;;;;;10.30;3.50;;;;;;;10.46;43.76;100613.11;105717;1258;62188;-69
2023/05/12 00:05:49;;;;;;;11.10;3.70;;;;;;;10.42;44.05;100611.95;105467;1260;73281;-69
2023/05/12 00:08:39;;;;;;;10.80;3.80;;;;;;;10.36;43.99;100613.76;105292;1256;66718;-69
2023/05/12 00:11:27;;;;;;;8.20;3.90;;;;;;;10.31;43.74;100613.52;105419;1257;71393;-68
2023/05/12 00:14:16;;;;;;;8.80;3.30;;;;;;;10.26;44.16;100610.17;105347;1264;59523;-67
2023/05/12 00:17:05;;;;;;;10.60;4.00;;;;;;;10.20;44.43;100611.10;105443;1257;60571;-69
2023/05/12 00:19:53;;;;;;;8.80;3.80;;;;;;;10.14;44.49;100614.52;105270;1258;71449;-68
2023/05/12 00:22:42;;;;;;;10.00;3.70;;;;;;;10.07;45.04;100613.52;105284;1262;67863;-68
2023/05/12 00:25:30;;;;;;;10.70;3.50;;;;;;;9.97;45.77;100611.19;105381;1257;71116;-69
2023/05/12 00:28:19;;;;;;;15.20;5.20;;;;;;;9.86;45.99;100606.60;105361;1265;59715;-68
2023/05/12 00:31:08;;;;;;;12.00;5.30;;;;;;;9.74;46.43;100613.58;105564;1257;59631;-69
2023/05/12 00:33:56;;;;;;;11.20;5.10;;;;;;;9.62;47.67;100614.02;105532;1254;72828;-67
2023/05/12 00:36:44;;;;;;;10.80;4.50;;;;;;;9.48;48.61;100620.91;105817;1254;69200;-69
2023/05/12 00:39:33;;;;;;;11.90;5.00;;;;;;;9.33;49.60;100620.51;104828;1256;1003245;-68
2023/05/12 00:42:22;;;;;;;11.00;5.60;;;;;;;9.16;50.88;100628.43;105610;1262;59730;-68
2023/05/12 00:45:11;;;;;;;13.20;5.40;;;;;;;8.99;51.70;100632.84;105780;1255;61351;-69
2023/05/12 00:47:59;;;;;;;13.40;6.40;;;;;;;8.83;53.53;100632.08;105480;1257;73078;-69
2023/05/12 00:50:48;;;;;;;12.20;6.10;;;;;;;8.67;54.61;100636.55;105662;1255;66649;-67
2023/05/12 00:53:37;;;;;;;11.70;6.20;;;;;;;8.51;55.74;100639.33;105540;1255;72503;-67
2023/05/12 00:56:38;;;;;;;13.90;6.20;;;;;;;8.34;56.52;100638.70;105538;1254;60226;-68
2023/05/12 00:59:28;;;;;;;11.90;5.50;;;;;;;8.20;57.11;100638.64;105610;1256;61172;-67
2023/05/12 01:02:16;;;;;;;11.40;5.30;;;;;;;8.06;57.52;100644.55;105680;1255;72458;-67
2023/05/12 01:05:06;;;;;;;11.20;5.40;;;;;;;7.94;58.15;100653.56;105387;1254;68248;-67
2023/05/12 01:07:55;;;;;;;11.40;5.70;;;;;;;7.82;58.30;100655.48;105418;1256;72522;-66
2023/05/12 01:10:44;;;;;;;12.20;5.50;;;;;;;7.70;59.01;100652.42;105719;1255;59850;-66
2023/05/12 01:13:35;;;;;;;11.00;4.90;;;;;;;7.59;58.65;100655.17;105678;1259;60047;-66
2023/05/12 01:16:28;;;;;;;15.60;5.30;;;;;;;7.50;59.35;100664.30;105640;1257;73686;-68
2023/05/12 01:20:07;;;;;;;10.40;5.00;;;;;;;7.39;59.87;100664.02;105380;1258;68523;-66
2023/05/12 01:22:58;;;;;;;12.20;4.90;;;;;;;7.27;60.35;100664.32;105384;1259;73644;-66
2023/05/12 01:25:49;;;;;;;12.10;5.30;;;;;;;7.18;61.26;100662.69;105414;1257;59784;-69
2023/05/12 01:28:40;;;;;;;9.00;4.40;;;;;;;7.11;61.23;100666.05;105362;1260;59681;-67
2023/05/12 01:31:29;;;;;;;10.30;4.60;;;;;;;7.06;60.74;100667.77;105626;1262;73781;-69
2023/05/12 01:34:18;;;;;;;10.00;4.30;;;;;;;7.00;60.34;100661.91;105285;1258;67795;-69
2023/05/12 01:37:11;;;;;;;10.80;4.80;;;;;;;6.95;60.96;100667.26;105302;1259;71142;-69
2023/05/12 01:40:01;;;;;;;12.80;4.70;;;;;;;6.90;61.07;100665.63;105500;1257;59819;-68
2023/05/12 01:42:50;;;;;;;11.20;6.30;;;;;;;6.84;61.80;100664.85;105456;1257;59981;-68
2023/05/12 01:45:38;;;;;;;11.20;4.30;;;;;;;6.78;62.04;100669.38;105235;1261;72353;-67
2023/05/12 01:48:26;;;;;;;11.90;4.30;;;;;;;6.72;62.54;100677.61;105387;1258;66464;-67
2023/05/12 01:51:16;;;;;;;8.50;4.30;;;;;;;6.66;63.21;100674.76;105376;1258;71357;-67
2023/05/12 01:54:05;;;;;;;10.20;4.30;;;;;;;6.61;63.69;100675.58;105348;1261;59612;-67
2023/05/12 01:56:58;;;;;;;10.20;4.60;;;;;;;6.55;63.07;100679.42;105274;1257;61524;-67
2023/05/12 01:59:46;;;;;;;11.00;4.60;;;;;;;6.49;63.35;100679.54;105198;1261;73136;-67
2023/05/12 02:02:35;;;;;;;11.50;4.70;;;;;;;6.43;63.59;100682.64;105250;1257;65463;-67
2023/05/12 02:05:26;;;;;;;9.40;4.60;;;;;;;6.39;62.66;100681.45;104687;1262;1002844;-68
2023/05/12 02:08:15;;;;;;;10.90;4.40;;;;;;;6.33;63.27;100683.85;105275;1259;59756;-67
2023/05/12 02:11:08;;;;;;;10.10;4.90;;;;;;;6.28;63.12;100683.19;105296;1259;61700;-66
2023/05/12 02:13:58;;;;;;;8.60;4.30;;;;;;;6.25;63.15;100684.95;105458;1259;72289;-65
2023/05/12 02:16:51;;;;;;;10.40;4.30;;;;;;;6.20;62.97;100687.30;105080;1265;68043;-66
2023/05/12 02:19:40;;;;;;;11.00;4.40;;;;;;;6.17;63.59;100687.80;105284;1259;73175;-65
2023/05/12 02:22:28;;;;;;;11.20;4.70;;;;;;;6.15;64.04;100692.13;105174;1259;59830;-66
2023/05/12 02:25:18;;;;;;;10.00;4.20;;;;;;;6.11;63.50;100688.10;105466;1262;61903;-66
2023/05/12 02:28:10;;;;;;;8.80;3.90;;;;;;;6.08;64.52;100689.64;105365;1263;73684;-67
2023/05/12 02:30:59;;;;;;;9.40;4.20;;;;;;;6.03;64.84;100687.95;105165;1262;68148;-66
2023/05/12 02:33:49;;;;;;;9.80;4.40;;;;;;;6.00;64.69;100687.77;105259;1257;72550;-67
2023/05/12 02:36:38;;;;;;;11.50;4.60;;;;;;;5.97;65.07;100690.33;105513;1268;59786;-67
2023/05/12 02:39:26;;;;;;;14.10;5.10;;;;;;;5.94;64.93;100692.76;105966;1260;60390;-67
2023/05/12 02:42:15;;;;;;;11.00;4.50;;;;;;;5.91;65.39;100692.70;105803;1260;72265;-68
2023/05/12 02:45:07;;;;;;;9.60;4.40;;;;;;;5.89;65.71;100694.09;105582;1262;66272;-67
2023/05/12 02:47:55;;;;;;;10.70;4.60;;;;;;;5.86;66.05;100699.31;105728;1258;72321;-67
2023/05/12 02:50:43;;;;;;;9.90;4.30;;;;;;;5.83;66.22;100697.86;105449;1263;59593;-68
2023/05/12 02:53:32;;;;;;;11.70;4.20;;;;;;;5.81;66.24;100703.05;105334;1260;59713;-65
2023/05/12 02:56:21;;;;;;;10.30;4.50;;;;;;;5.78;66.72;100702.50;105512;1257;73380;-67
2023/05/12 02:59:09;;;;;;;12.30;4.30;;;;;;;5.76;66.94;100700.81;105302;1260;66650;-68
2023/05/12 03:01:58;;;;;;;9.80;4.10;;;;;;;5.74;66.86;100703.77;105517;1257;73362;-66
2023/05/12 03:04:46;;;;;;;11.30;4.80;;;;;;;5.72;66.93;100702.81;105571;1262;59595;-66
2023/05/12 03:07:35;;;;;;;12.10;5.10;;;;;;;5.71;66.52;100702.48;105296;1258;59772;-67
2023/05/12 03:10:23;;;;;;;8.60;4.70;;;;;;;5.73;67.02;100702.74;105591;1260;71645;-68
2023/05/12 03:13:13;;;;;;;9.80;4.60;;;;;;;5.76;67.11;100703.83;105514;1259;66320;-67
2023/05/12 03:16:03;;;;;;;10.20;4.60;;;;;;;5.80;67.39;100700.45;105504;1256;71626;-64
2023/05/12 03:18:52;;;;;;;10.40;5.00;;;;;;;5.85;66.51;100704.11;105748;1255;59686;-66
2023/05/12 03:21:41;;;;;;;11.50;4.70;;;;;;;5.90;66.00;100701.39;105717;1259;59557;-67
2023/05/12 03:24:29;;;;;;;11.10;5.10;;;;;;;5.95;66.37;100703.09;105604;1256;71839;-70
2023/05/12 03:27:17;;;;;;;9.90;4.80;;;;;;;5.99;66.21;100705.06;105607;1257;66576;-70
2023/05/12 03:30:06;;;;;;;9.20;4.30;;;;;;;6.03;66.21;100703.99;105580;1254;71170;-71
2023/05/12 03:32:56;;;;;;;11.10;5.10;;;;;;;6.06;65.99;100709.65;105887;1262;59737;-68
2023/05/12 03:35:44;;;;;;;9.70;4.60;;;;;;;6.09;65.78;100706.17;105609;1257;59628;-68
2023/05/12 03:38:32;;;;;;;10.10;4.80;;;;;;;6.12;65.37;100710.59;105687;1256;72766;-69
2023/05/12 03:41:20;;;;;;;13.20;4.80;;;;;;;6.15;65.45;100710.78;105879;1257;66402;-69
2023/05/12 03:44:10;;;;;;;13.10;4.90;;;;;;;6.19;64.82;100709.38;105780;1255;71817;-66
2023/05/12 03:47:00;;;;;;;10.00;4.90;;;;;;;6.23;64.69;100709.90;105716;1259;59617;-70
2023/05/12 03:49:49;;;;;;;12.30;4.90;;;;;;;6.28;65.12;100710.69;105608;1255;59708;-68
2023/05/12 03:52:40;;;;;;;13.70;4.80;;;;;;;6.32;64.56;100710.84;105648;1256;73564;-70
2023/05/12 03:55:28;;;;;;;11.50;4.90;;;;;;;6.39;64.57;100708.77;105688;1257;67906;-69
2023/05/12 03:58:16;;;;;;;10.80;4.80;;;;;;;6.44;64.36;100711.48;105792;1256;72697;-70
2023/05/12 04:01:06;;;;;;;11.10;5.10;;;;;;;6.50;64.32;100712.09;105658;1256;59720;-68
2023/05/12 04:03:56;;;;;;;13.10;4.90;;;;;;;6.56;64.41;100709.65;106144;1260;62693;-68
2023/05/12 04:06:45;;;;;;;10.50;4.70;;;;;;;6.64;64.02;100713.86;106603;1254;73506;-69
2023/05/12 04:09:34;;;;;;;11.70;4.60;;;;;;;6.74;63.45;100714.05;105855;1259;67941;-69
2023/05/12 04:12:25;;;;;;;13.20;5.40;;;;;;;6.83;63.57;100712.84;105709;1260;72722;-69
2023/05/12 04:15:14;;;;;;;11.10;5.30;;;;;;;6.91;64.16;100716.14;105876;1259;59817;-66
2023/05/12 04:18:04;;;;;;;12.30;5.20;;;;;;;7.02;64.13;100714.00;105692;1254;60225;-71
2023/05/12 04:20:53;;;;;;;18.50;5.30;;;;;;;7.12;63.93;100717.16;105641;1256;72617;-66
2023/05/12 04:23:42;;;;;;;13.50;5.40;;;;;;;7.25;63.59;100719.48;105805;1257;67295;-69
2023/05/12 04:26:32;;;;;;;15.50;5.70;;;;;;;7.40;62.96;100718.74;105959;1256;71651;-69
2023/05/12 04:29:21;;;;;;;12.10;5.50;;;;;;;7.57;62.61;100723.10;105668;1256;59615;-70
2023/05/12 04:32:10;;;;;;;13.30;5.30;;;;;;;7.76;61.85;100722.08;105502;1260;60233;-69
2023/05/12 04:34:59;;;;;;;12.60;4.80;;;;;;;7.98;60.56;100725.92;105385;1260;71845;-69
2023/05/12 04:37:51;;;;;;;10.80;4.90;;;;;;;8.23;59.71;100723.99;105409;1260;67980;-68
2023/05/12 04:40:42;;;;;;;12.80;4.40;;;;;;;8.44;59.22;100718.76;105688;1262;73917;-74
2023/05/12 04:43:30;;;;;;;9.60;4.40;;;;;;;8.70;57.60;100722.34;105348;1263;59256;-76
2023/05/12 04:46:21;;;;;;;11.60;4.60;;;;;;;8.99;56.76;100722.39;105532;1266;60413;-77
2023/05/12 04:49:10;;;;;;;15.30;4.10;;;;;;;9.25;55.56;100723.48;105282;1267;71758;-75
2023/05/12 04:51:58;;;;;;;11.00;4.20;;;;;;;9.55;53.49;100729.11;105381;1262;68993;-77
2023/05/12 04:54:47;;;;;;;10.50;4.10;;;;;;;9.83;53.14;100727.66;105295;1265;73691;-76
2023/05/12 04:57:35;;;;;;;8.90;4.20;;;;;;;10.09;52.03;100728.66;105364;1265;59643;-75
2023/05/12 05:00:25;;;;;;;10.40;4.50;;;;;;;10.33;51.19;100733.46;107998;1266;60174;-78
2023/05/12 05:03:14;;;;;;;8.90;4.10;;;;;;;10.60;50.31;100730.50;104951;1268;72087;-75
2023/05/12 05:06:03;;;;;;;8.80;3.80;;;;;;;10.90;48.87;100733.75;105323;1273;67739;-74
2023/05/12 05:08:54;;;;;;;10.70;4.20;;;;;;;11.30;47.97;100735.30;105060;1268;72880;-73
2023/05/12 05:11:44;;;;;;;10.90;3.70;;;;;;;12.12;46.48;100738.16;105357;1268;59832;-73
2023/05/12 05:14:33;;;;;;;15.30;4.60;;;;;;;13.54;43.79;100727.86;105741;1268;60308;-72
2023/05/12 05:17:22;;;;;;;8.00;3.70;;;;;;;15.10;40.31;100721.83;105753;1273;72871;-75
2023/05/12 05:20:10;;;;;;;10.70;4.00;;;;;;;16.54;37.30;100716.12;108010;1269;68954;-74
2023/05/12 05:23:02;;;;;;;13.00;3.60;;;;;;;17.84;35.21;100715.26;105669;1270;71631;-74
2023/05/12 05:25:51;;;;;;;9.90;3.80;;;;;;;19.18;33.57;100712.66;104941;1270;59672;-76
2023/05/12 05:28:40;;;;;;;8.90;3.80;;;;;;;20.47;32.14;100717.52;105015;1271;59570;-76
2023/05/12 05:31:28;;;;;;;9.00;3.60;;;;;;;21.48;28.80;100712.10;105245;1262;71946;-75
2023/05/12 05:34:17;;;;;;;7.80;3.10;;;;;;;22.29;28.29;100710.22;106551;1262;68122;-71
2023/05/12 05:37:08;;;;;;;11.00;3.00;;;;;;;23.13;26.89;100714.08;105410;1265;72462;-72
2023/05/12 05:39:57;;;;;;;9.80;3.30;;;;;;;23.66;25.31;100713.95;106512;1264;58862;-71
2023/05/12 05:42:46;;;;;;;10.10;3.40;;;;;;;24.45;25.06;100716.87;107649;1259;60095;-69
2023/05/12 05:45:35;;;;;;;9.70;3.40;;;;;;;25.17;23.69;100719.08;107186;1263;177473;-71
2023/05/12 05:48:25;;;;;;;10.50;3.40;;;;;;;25.71;23.17;100718.13;107309;1259;66647;-72
2023/05/12 05:51:14;;;;;;;11.30;3.10;;;;;;;26.38;22.28;100720.50;106055;1259;71463;-72
2023/05/12 05:54:04;;;;;;;11.20;3.20;;;;;;;27.00;21.52;100718.86;105778;1268;59802;-71
2023/05/12 05:56:54;;;;;;;10.10;3.40;;;;;;;27.47;20.60;100725.84;105448;1259;59826;-72
2023/05/12 05:59:42;;;;;;;10.40;3.40;;;;;;;27.87;20.25;100728.08;105528;1261;73282;-71
2023/05/12 06:02:32;;;;;;;9.50;3.30;;;;;;;28.26;19.44;100733.45;105394;1262;67744;-71
2023/05/12 06:05:21;;;;;;;9.10;3.20;;;;;;;28.65;19.64;100737.52;105332;1262;71153;-70
2023/05/12 06:08:12;;;;;;;10.10;3.20;;;;;;;29.17;18.73;100739.77;105549;1256;59787;-74
2023/05/12 06:11:00;;;;;;;8.80;3.00;;;;;;;29.18;17.93;100747.26;105576;1260;60853;-74
2023/05/12 06:13:49;;;;;;;9.20;2.90;;;;;;;28.74;17.95;100747.11;105786;1263;72260;-73
2023/05/12 06:16:38;;;;;;;9.70;3.20;;;;;;;28.76;18.26;100750.25;105733;1256;67986;-73
2023/05/12 06:19:29;;;;;;;8.90;3.10;;;;;;;28.21;18.21;100744.89;106992;1259;71140;-74
2023/05/12 06:22:19;;;;;;;11.00;4.70;;;;;;;28.53;18.66;100745.36;105780;1255;59489;-73
2023/05/12 06:25:08;;;;;;;11.20;3.70;;;;;;;28.75;18.05;100746.77;105782;1256;60204;-74
2023/05/12 06:27:59;;;;;;;11.30;3.40;;;;;;;29.11;18.12;100745.17;105727;1264;73144;-73
2023/05/12 06:30:51;;;;;;;10.70;4.50;;;;;;;29.40;18.07;100750.77;106096;1257;66778;-75
2023/05/12 06:33:39;;;;;;;11.60;4.00;;;;;;;29.69;17.86;100754.06;105607;1262;74172;-74
2023/05/12 06:36:32;;;;;;;11.60;3.70;;;;;;;29.70;17.41;100752.45;105645;1259;59727;-74
2023/05/12 06:39:23;;;;;;;11.20;3.50;;;;;;;29.95;17.22;100752.31;105445;1255;59958;-72
2023/05/12 06:42:18;;;;;;;10.80;3.70;;;;;;;30.30;17.25;100751.34;106199;1257;73094;-73
2023/05/12 06:45:11;;;;;;;10.30;3.50;;;;;;;30.73;17.11;100752.45;105557;1259;67652;-73
2023/05/12 06:48:02;;;;;;;11.30;3.40;;;;;;;31.23;16.63;100752.06;105585;1259;72664;-74
2023/05/12 06:50:51;;;;;;;10.90;3.70;;;;;;;31.52;16.27;100756.66;105514;1257;59756;-72
2023/05/12 06:53:40;;;;;;;10.50;3.60;;;;;;;31.69;16.25;100755.17;105996;1259;59628;-68
2023/05/12 06:56:28;;;;;;;12.10;3.80;;;;;;;31.74;16.15;100756.44;105582;1256;73346;-72
2023/05/12 06:59:16;;;;;;;13.00;3.60;;;;;;;32.03;16.24;100752.56;105648;1256;66688;-72
2023/05/12 07:02:10;;;;;;;12.00;4.00;;;;;;;32.40;15.95;100753.69;105777;1256;72783;-70
2023/05/12 07:04:59;;;;;;;10.90;3.80;;;;;;;32.39;15.68;100749.92;107770;1258;59703;-71
2023/05/12 07:07:49;;;;;;;12.00;3.80;;;;;;;32.56;15.65;100755.08;105956;1256;59695;-68
2023/05/12 07:10:42;;;;;;;12.70;3.80;;;;;;;32.75;15.53;100753.16;105947;1261;73064;-74
2023/05/12 07:13:30;;;;;;;12.00;3.90;;;;;;;32.97;15.20;100754.93;106009;1256;66556;-74
2023/05/12 07:16:19;;;;;;;12.50;3.40;;;;;;;33.05;15.09;100757.69;106549;1254;71366;-71
2023/05/12 07:19:08;;;;;;;13.70;3.60;;;;;;;32.90;14.68;100758.19;105566;1256;59650;-71
2023/05/12 07:21:57;;;;;;;12.20;3.90;;;;;;;32.84;14.86;100755.91;105535;1256;59390;-74
2023/05/12 07:24:45;;;;;;;14.20;3.50;;;;;;;32.86;14.80;100753.39;105583;1262;73472;-72
2023/05/12 07:27:34;;;;;;;10.50;3.00;;;;;;;32.77;14.58;100754.11;105567;1259;67589;-73
2023/05/12 07:30:25;;;;;;;10.30;3.20;;;;;;;32.58;14.69;100757.98;106165;1260;74100;-81
2023/05/12 07:33:18;;;;;;;8.90;3.20;;;;;;;32.61;14.68;100761.27;106449;1257;59595;-80
2023/05/12 07:36:12;;;;;;;11.30;3.20;;;;;;;32.69;14.87;100761.15;106091;1256;61070;-80
2023/05/12 07:39:04;;;;;;;9.60;3.20;;;;;;;32.90;14.59;100762.03;106122;1257;73783;-82
2023/05/12 07:41:54;;;;;;;9.60;3.40;;;;;;;33.07;14.47;100764.39;105780;1260;66346;-79
2023/05/12 07:44:43;;;;;;;8.70;2.60;;;;;;;33.18;14.22;100765.66;106283;1257;71602;-85
2023/05/12 07:47:37;;;;;;;11.70;5.00;;;;;;;33.08;14.24;100764.91;106420;1256;59624;-80
2023/05/12 07:50:39;;;;;;;11.30;3.40;;;;;;;33.20;13.99;100763.05;106590;1259;60581;-84
2023/05/12 07:53:29;;;;;;;10.50;3.00;;;;;;;33.38;14.09;100762.48;106478;1260;73969;-81
2023/05/12 07:56:20;;;;;;;9.40;3.00;;;;;;;33.56;13.87;100766.92;106380;1264;68988;-81
2023/05/12 07:59:10;;;;;;;9.40;3.30;;;;;;;33.67;13.78;100768.56;107392;1259;71402;-81
2023/05/12 08:01:59;;;;;;;8.50;2.70;;;;;;;33.36;13.84;100766.94;107878;1266;59698;-82
2023/05/12 08:04:50;;;;;;;9.50;2.60;;;;;;;33.00;13.71;100771.67;105596;1262;59573;-78
2023/05/12 08:07:42;;;;;;;8.70;2.90;;;;;;;33.03;14.02;100770.73;107864;1262;71766;-76
2023/05/12 08:10:35;;;;;;;8.40;2.80;;;;;;;33.13;14.20;100773.59;106347;1259;67424;-80
2023/05/12 08:13:25;;;;;;;11.50;3.10;;;;;;;32.88;13.98;100772.09;106808;1264;72213;-82
2023/05/12 08:16:15;;;;;;;8.00;2.80;;;;;;;32.67;14.09;100774.33;107864;1259;59599;-84
2023/05/12 08:19:07;;;;;;;9.90;2.90;;;;;;;32.56;14.62;100776.49;106808;1267;60341;-83
2023/05/12 08:22:25;;;;;;;;;;;;;;;;;;;;;
2023/05/12 08:25:26;;;;;;;10.10;3.40;;;;;;;32.22;15.13;100778.85;107018;1260;67799;-79
2023/05/12 08:28:21;;;;;;;12.90;3.50;;;;;;;32.12;14.83;100780.23;106135;1257;71703;-81
2023/05/12 08:31:19;;;;;;;11.80;3.60;;;;;;;32.01;14.81;100784.95;106424;1257;59669;-81
2023/05/12 08:34:34;;;;;;;9.20;3.40;;;;;;;31.71;15.02;100785.20;105939;1265;60788;-83
2023/05/12 08:37:32;;;;;;;12.40;3.10;;;;;;;31.29;15.31;100784.90;106981;1259;72401;-83
2023/05/12 08:40:41;;;;;;;8.90;2.80;;;;;;;31.37;15.74;100780.36;108001;1261;67945;-84
2023/05/12 08:43:52;;;;;;;9.30;3.00;;;;;;;31.92;15.62;100787.29;107691;1259;73321;-83
2023/05/12 08:46:48;;;;;;;9.20;3.10;;;;;;;31.88;15.47;100787.54;107175;1260;59774;-75
2023/05/12 08:49:44;;;;;;;13.70;3.00;;;;;;;31.94;15.08;100788.37;105897;1266;60638;-75
2023/05/12 08:52:36;;;;;;;11.10;3.00;;;;;;;32.09;15.66;100782.50;108004;1259;73955;-81
2023/05/12 08:55:31;;;;;;;7.30;2.70;;;;;;;32.17;15.42;100777.34;107228;1266;68317;-81
2023/05/12 08:58:24;;;;;;;10.20;2.90;;;;;;;32.49;15.38;100779.45;106485;1259;72172;-80
2023/05/12 09:01:35;;;;;;;8.80;2.70;;;;;;;32.71;15.19;100783.67;106941;1266;59659;-79
2023/05/12 09:04:36;;;;;;;7.70;3.00;;;;;;;32.90;14.87;100778.42;105838;1269;60979;-78
2023/05/12 09:07:29;;;;;;;10.50;3.40;;;;;;;33.15;14.85;100781.73;105905;1261;71875;-80
2023/05/12 09:10:21;;;;;;;8.40;2.90;;;;;;;33.08;14.77;100780.78;107185;1266;69407;-77
2023/05/12 09:13:46;;;;;;;8.50;2.90;;;;;;;33.20;14.93;100777.33;105988;1260;71874;-77
2023/05/12 09:16:43;;;;;;;9.00;3.30;;;;;;;33.38;15.02;100777.39;105808;1271;59734;-76
2023/05/12 09:19:33;;;;;;;7.80;2.90;;;;;;;33.73;14.78;100774.83;105741;1264;59607;-79
2023/05/12 09:22:43;;;;;;;10.90;3.80;;;;;;;33.90;14.53;100775.55;107611;1257;71832;-83
2023/05/12 09:25:34;;;;;;;11.50;3.80;;;;;;;34.02;14.32;100775.30;107495;1262;67965;-81
2023/05/12 09:28:37;;;;;;;9.90;3.60;;;;;;;34.07;14.26;100773.63;107006;1263;73219;-78
2023/05/12 09:31:26;;;;;;;9.20;4.00;;;;;;;34.05;14.26;100767.20;105651;1265;59667;-77
2023/05/12 09:34:16;;;;;;;8.40;2.70;;;;;;;34.09;14.06;100769.14;107362;1264;59054;-78
2023/05/12 09:37:11;;;;;;;10.90;3.00;;;;;;;34.05;14.45;100770.62;106083;1265;73099;-80
2023/05/12 09:40:10;;;;;;;9.70;3.10;;;;;;;33.91;14.33;100767.27;106095;1265;66580;-74
2023/05/12 09:42:59;;;;;;;9.70;2.70;;;;;;;33.89;14.31;100766.75;105661;1262;72523;-75
2023/05/12 09:45:50;;;;;;;12.30;3.90;;;;;;;33.90;14.15;100764.33;105763;1264;59776;-75
2023/05/12 09:48:41;;;;;;;9.40;3.30;;;;;;;33.56;14.36;100760.03;105526;1268;59617;-74
2023/05/12 09:51:31;;;;;;;9.30;3.20;;;;;;;33.31;14.93;100761.46;105495;1262;71779;-73
2023/05/12 09:54:28;;;;;;;11.20;3.70;;;;;;;33.26;15.02;100755.55;105548;1265;67614;-76
2023/05/12 09:57:21;;;;;;;11.30;3.50;;;;;;;33.35;15.16;100752.31;105734;1264;72493;-80
2023/05/12 10:00:17;;;;;;;10.60;3.50;;;;;;;33.38;15.36;100749.33;106641;1266;60076;-79
2023/05/12 10:03:38;;;;;;;8.60;2.70;;;;;;;33.41;15.19;100745.33;106344;1268;59802;-77
2023/05/12 10:06:35;;;;;;;10.70;3.30;;;;;;;33.48;15.35;100747.02;105471;1269;72998;-76
2023/05/12 10:09:30;;;;;;;11.40;2.90;;;;;;;33.67;15.56;100747.02;106022;1263;67872;-75
2023/05/12 10:12:18;;;;;;;8.90;3.10;;;;;;;33.72;15.48;100740.97;105331;1267;73753;-75
2023/05/12 10:15:09;;;;;;;9.10;2.70;;;;;;;33.63;15.70;100741.23;106274;1261;59597;-73
2023/05/12 10:18:06;;;;;;;11.00;3.60;;;;;;;33.71;15.50;100739.41;106251;1261;63919;-76
2023/05/12 10:20:55;;;;;;;8.90;3.10;;;;;;;33.87;14.79;100741.11;105410;1261;73124;-72
2023/05/12 10:23:49;;;;;;;8.10;2.40;;;;;;;33.50;14.64;100734.80;105218;1263;66818;-71
2023/05/12 10:26:40;;;;;;;10.80;2.90;;;;;;;33.53;15.31;100732.02;105264;1264;72809;-71
2023/05/12 10:29:31;;;;;;;10.40;3.10;;;;;;;33.55;15.03;100735.35;105327;1268;59654;-71
2023/05/12 10:32:20;;;;;;;8.10;2.70;;;;;;;33.33;15.31;100730.16;105748;1257;59533;-73
2023/05/12 10:35:13;;;;;;;8.00;2.80;;;;;;;33.03;14.71;100730.48;105485;1262;73219;-73
2023/05/12 10:38:18;;;;;;;8.40;2.30;;;;;;;32.97;15.17;100735.91;105615;1260;66594;-75
2023/05/12 10:41:08;;;;;;;9.90;2.80;;;;;;;32.79;15.01;100732.12;105524;1260;71110;-77
2023/05/12 10:43:58;;;;;;;10.30;3.30;;;;;;;32.96;15.61;100731.55;107429;1256;58561;-76
2023/05/12 10:47:00;;;;;;;8.70;3.10;;;;;;;33.19;15.29;100728.69;105596;1263;59590;-76
2023/05/12 10:49:55;;;;;;;8.70;2.70;;;;;;;33.46;15.35;100730.66;105836;1262;73796;-74
2023/05/12 10:52:54;;;;;;;9.00;2.30;;;;;;;33.54;14.91;100730.54;105866;1263;67637;-74
2023/05/12 10:55:46;;;;;;;7.70;2.50;;;;;;;33.65;15.18;100729.58;105544;1262;71656;-75
2023/05/12 10:58:35;;;;;;;10.50;3.30;;;;;;;33.76;15.26;100729.50;105623;1261;59624;-75
2023/05/12 11:01:24;;;;;;;10.60;3.10;;;;;;;33.90;15.12;100727.79;105551;1263;60047;-76
2023/05/12 11:04:16;;;;;;;8.50;2.70;;;;;;;33.73;15.06;100725.92;105665;1260;72759;-78
2023/05/12 11:07:13;;;;;;;13.10;3.80;;;;;;;33.69;14.99;100723.65;105730;1258;67855;-74
2023/05/12 11:10:04;;;;;;;9.70;3.20;;;;;;;33.58;15.15;100725.23;105653;1261;71243;-74
2023/05/12 11:12:55;;;;;;;8.90;2.90;;;;;;;32.72;14.77;100724.88;105572;1262;59714;-74
2023/05/12 11:15:46;;;;;;;9.00;2.40;;;;;;;32.14;15.00;100719.51;105931;1260;59668;-74
2023/05/12 11:18:34;;;;;;;8.20;3.10;;;;;;;31.36;15.71;100720.19;105871;1254;71824;-72
2023/05/12 11:21:23;;;;;;;11.80;2.70;;;;;;;30.91;16.38;100718.61;105707;1254;68872;-76
2023/05/12 11:24:12;;;;;;;11.20;2.80;;;;;;;30.59;16.67;100713.66;105644;1255;73719;-75
2023/05/12 11:27:03;;;;;;;10.70;3.00;;;;;;;30.18;16.87;100716.84;105827;1254;59695;-79
2023/05/12 11:30:00;;;;;;;9.50;2.80;;;;;;;29.92;17.39;100718.80;105842;1254;60323;-81
2023/05/12 11:33:00;;;;;;;12.20;2.90;;;;;;;29.52;17.28;100716.85;106327;1254;73029;-75
2023/05/12 11:35:49;;;;;;;8.00;2.80;;;;;;;29.03;17.35;100717.91;105934;1262;67759;-72
2023/05/12 11:38:39;;;;;;;10.10;2.90;;;;;;;28.49;17.81;100714.39;105976;1259;72710;-72
2023/05/12 11:41:27;;;;;;;7.80;2.40;;;;;;;27.99;18.36;100721.31;105602;1254;59720;-75
2023/05/12 11:44:46;;;;;;;8.30;2.50;;;;;;;27.36;18.76;100726.11;105633;1260;60265;-78
2023/05/12 11:47:37;;;;;;;9.90;3.30;;;;;;;26.20;18.18;100715.04;106872;1259;73062;-79
2023/05/12 11:50:28;;;;;;;9.60;3.30;;;;;;;25.80;20.19;100710.73;105683;1254;68071;-76
2023/05/12 11:53:18;;;;;;;13.20;3.50;;;;;;;25.37;20.56;100710.91;105653;1254;71118;-75
2023/05/12 11:56:06;;;;;;;7.80;2.80;;;;;;;24.84;20.86;100724.23;105694;1255;59260;-74
2023/05/12 11:58:56;;;;;;;10.20;3.00;;;;;;;24.20;22.16;100725.98;105764;1260;59606;-78
2023/05/12 12:01:45;;;;;;;14.50;3.30;;;;;;;23.99;23.17;100719.21;105778;1259;73078;-76
2023/05/12 12:04:37;;;;;;;9.80;3.00;;;;;;;23.85;23.36;100721.56;105836;1260;68967;-76
2023/05/12 12:07:30;;;;;;;8.10;3.20;;;;;;;23.60;24.08;100723.16;105942;1258;71991;-74
2023/05/12 12:10:20;;;;;;;8.90;3.20;;;;;;;23.36;24.70;100726.98;105329;1265;59740;-76
2023/05/12 12:13:11;;;;;;;8.50;2.90;;;;;;;23.17;24.27;100721.68;105410;1267;59557;-75
2023/05/12 12:16:00;;;;;;;9.40;3.10;;;;;;;22.80;23.07;100723.68;105340;1261;73164;-75
2023/05/12 12:18:50;;;;;;;11.40;2.90;;;;;;;22.66;22.85;100720.77;105577;1267;66641;-75
2023/05/12 12:21:41;;;;;;;9.70;2.90;;;;;;;22.60;23.26;100718.55;105794;1259;72781;-76
2023/05/12 12:24:30;;;;;;;9.60;2.80;;;;;;;22.51;23.25;100717.30;106609;1264;60185;-78
2023/05/12 12:27:19;;;;;;;8.00;2.80;;;;;;;22.35;23.01;100724.86;105755;1267;60277;-79
2023/05/12 12:30:08;;;;;;;6.90;2.60;;;;;;;22.21;24.31;100726.63;106180;1258;73039;-75
2023/05/12 12:32:57;;;;;;;8.70;3.20;;;;;;;22.09;24.73;100723.73;105720;1258;67885;-77
2023/05/12 12:35:48;;;;;;;8.00;2.60;;;;;;;22.02;24.62;100724.21;105551;1264;71583;-78
2023/05/12 12:38:37;;;;;;;8.60;3.20;;;;;;;22.01;24.46;100718.73;105707;1259;59788;-77
2023/05/12 12:41:27;;;;;;;9.40;3.50;;;;;;;21.90;24.34;100721.20;105562;1256;59547;-78
2023/05/12 12:44:17;;;;;;;9.30;3.30;;;;;;;21.80;24.59;100721.11;105757;1260;71471;-78
2023/05/12 12:47:05;;;;;;;11.40;4.50;;;;;;;21.72;24.84;100716.25;105934;1254;65968;-79
2023/05/12 12:49:55;;;;;;;8.00;3.20;;;;;;;21.72;24.98;100713.58;105590;1264;72740;-76
2023/05/12 12:52:48;;;;;;;8.90;3.20;;;;;;;21.73;24.56;100711.27;105925;1261;59794;-79
2023/05/12 12:55:36;;;;;;;10.00;3.40;;;;;;;21.67;24.67;100712.81;105739;1263;59901;-77
2023/05/12 12:58:26;;;;;;;8.20;3.40;;;;;;;21.66;25.16;100710.98;105312;1270;71766;-77
2023/05/12 13:01:14;;;;;;;8.70;2.60;;;;;;;21.51;23.80;100714.48;105320;1264;67659;-77
2023/05/12 13:04:03;;;;;;;8.40;2.80;;;;;;;21.38;24.19;100708.64;105360;1262;72713;-78
2023/05/12 13:06:52;;;;;;;9.50;3.10;;;;;;;21.37;24.68;100704.98;105316;1263;59668;-76
2023/05/12 13:09:42;;;;;;;8.90;3.30;;;;;;;21.42;24.65;100706.09;105213;1266;59617;-77